createdAt,value
2018-12-02T00:01:37.798Z,997.36
2018-12-02T00:02:37.753Z,997.41
2018-12-02T00:04:41.935Z,997.38
2018-12-02T00:05:41.930Z,997.29
2018-12-02T00:07:35.016Z,997.19
2018-12-02T00:08:35.014Z,996.95
2018-12-02T00:10:39.182Z,997.08
2018-12-02T00:11:39.147Z,996.99
2018-12-02T00:13:43.331Z,996.97
2018-12-02T00:14:43.302Z,997.01
2018-12-02T00:16:47.493Z,997.07
2018-12-02T00:17:47.464Z,996.91
2018-12-02T00:19:40.777Z,996.87
2018-12-02T00:20:40.753Z,996.89
2018-12-02T00:22:44.946Z,996.83
2018-12-02T00:23:44.909Z,996.94
2018-12-02T00:25:49.090Z,996.75
2018-12-02T00:26:49.068Z,996.86
2018-12-02T00:28:53.263Z,996.78
2018-12-02T00:29:53.216Z,996.82
2018-12-02T00:31:57.412Z,996.73
2018-12-02T00:32:57.389Z,996.72
2018-12-02T00:35:01.580Z,996.71
2018-12-02T00:36:01.544Z,996.70
2018-12-02T00:38:05.747Z,996.63
2018-12-02T00:39:05.704Z,996.59
2018-12-02T00:41:09.913Z,996.63
2018-12-02T00:42:09.872Z,996.58
2018-12-02T00:44:14.070Z,996.66
2018-12-02T00:45:14.047Z,996.61
2018-12-02T00:47:07.165Z,996.54
2018-12-02T00:48:07.135Z,996.48
2018-12-02T00:50:11.328Z,996.52
2018-12-02T00:51:11.289Z,996.47
2018-12-02T00:53:15.475Z,996.44
2018-12-02T00:54:15.442Z,996.36
2018-12-02T00:56:19.621Z,996.32
2018-12-02T00:57:19.596Z,996.27
2018-12-02T00:59:23.794Z,996.36
2018-12-02T01:00:23.755Z,996.26
2018-12-02T01:02:27.942Z,996.25
2018-12-02T01:03:27.910Z,996.26
2018-12-02T01:05:32.102Z,996.25
2018-12-02T01:06:32.077Z,996.28
2018-12-02T01:08:36.261Z,996.25
2018-12-02T01:09:36.238Z,996.20
2018-12-02T01:11:40.425Z,996.01
2018-12-02T01:12:40.393Z,996.16
2018-12-02T01:14:44.591Z,996.11
2018-12-02T01:15:44.566Z,996.07
2018-12-02T01:17:37.700Z,996.04
2018-12-02T01:18:37.660Z,995.94
2018-12-02T01:20:41.855Z,996.08
2018-12-02T01:21:41.817Z,995.98
2018-12-02T01:23:46.026Z,996.00
2018-12-02T01:24:45.976Z,996.02
2018-12-02T01:26:50.157Z,996.08
2018-12-02T01:27:50.132Z,996.15
2018-12-02T01:29:54.359Z,996.09
2018-12-02T01:30:54.322Z,996.05
2018-12-02T01:32:58.523Z,996.05
2018-12-02T01:33:58.496Z,996.01
2018-12-02T01:36:02.683Z,995.89
2018-12-02T01:37:02.652Z,995.91
2018-12-02T01:39:06.836Z,995.91
2018-12-02T01:40:06.814Z,995.94
2018-12-02T01:42:11.001Z,995.85
2018-12-02T01:43:10.972Z,995.79
2018-12-02T01:45:04.280Z,995.73
2018-12-02T01:46:04.255Z,995.88
2018-12-02T01:48:08.443Z,995.86
2018-12-02T01:49:08.413Z,995.67
2018-12-02T01:51:12.602Z,995.65
2018-12-02T01:52:12.574Z,995.74
2018-12-02T01:54:16.752Z,995.63
2018-12-02T01:55:16.727Z,995.59
2018-12-02T01:57:09.852Z,995.71
2018-12-02T01:58:09.820Z,995.62
2018-12-02T02:00:14.021Z,995.61
2018-12-02T02:01:13.986Z,995.69
2018-12-02T02:03:18.187Z,995.54
2018-12-02T02:04:18.171Z,995.52
2018-12-02T02:06:22.382Z,995.56
2018-12-02T02:07:22.329Z,995.53
2018-12-02T02:09:26.513Z,995.51
2018-12-02T02:10:26.493Z,995.48
2018-12-02T02:12:30.681Z,995.41
2018-12-02T02:13:30.652Z,995.43
2018-12-02T02:15:34.851Z,995.34
2018-12-02T02:16:34.817Z,995.35
2018-12-02T02:18:39.013Z,995.39
2018-12-02T02:19:38.974Z,995.39
2018-12-02T02:21:43.156Z,995.35
2018-12-02T02:22:43.134Z,995.35
2018-12-02T02:24:47.332Z,995.25
2018-12-02T02:25:47.300Z,995.21
2018-12-02T02:27:40.412Z,995.18
2018-12-02T02:28:40.391Z,995.24
2018-12-02T02:30:44.592Z,995.08
2018-12-02T02:31:44.554Z,995.17
2018-12-02T02:33:48.740Z,995.13
2018-12-02T02:34:48.717Z,995.08
2018-12-02T02:36:52.918Z,995.01
2018-12-02T02:37:52.877Z,995.04
2018-12-02T02:39:57.083Z,995.00
2018-12-02T02:40:57.060Z,995.01
2018-12-02T02:43:01.269Z,995.00
2018-12-02T02:44:01.220Z,995.05
2018-12-02T02:46:05.419Z,995.01
2018-12-02T02:47:05.376Z,994.95
2018-12-02T02:49:09.585Z,994.98
2018-12-02T02:50:09.546Z,994.88
2018-12-02T02:52:13.722Z,994.88
2018-12-02T02:53:13.698Z,994.84
2018-12-02T02:55:17.890Z,994.80
2018-12-02T02:56:17.854Z,994.76
2018-12-02T02:58:22.049Z,994.73
2018-12-02T02:59:22.022Z,994.62
2018-12-02T03:01:26.206Z,994.65
2018-12-02T03:02:26.172Z,994.67
2018-12-02T03:04:30.357Z,994.69
2018-12-02T03:05:30.334Z,994.63
2018-12-02T03:07:23.473Z,994.54
2018-12-02T03:08:23.437Z,994.56
2018-12-02T03:10:27.625Z,994.46
2018-12-02T03:11:27.598Z,994.53
2018-12-02T03:13:31.792Z,994.47
2018-12-02T03:14:31.752Z,994.54
2018-12-02T03:16:35.940Z,994.44
2018-12-02T03:17:35.913Z,994.46
2018-12-02T03:19:40.125Z,994.41
2018-12-02T03:20:40.082Z,994.39
2018-12-02T03:22:44.265Z,994.34
2018-12-02T03:23:44.243Z,994.32
2018-12-02T03:25:48.443Z,994.28
2018-12-02T03:26:48.403Z,994.25
2018-12-02T03:28:52.588Z,994.29
2018-12-02T03:29:52.565Z,994.27
2018-12-02T03:31:56.760Z,994.24
2018-12-02T03:32:56.734Z,994.23
2018-12-02T03:35:00.904Z,994.20
2018-12-02T03:36:00.882Z,994.21
2018-12-02T03:38:05.066Z,994.22
2018-12-02T03:39:05.030Z,994.17
2018-12-02T03:41:09.218Z,994.18
2018-12-02T03:42:09.191Z,994.17
2018-12-02T03:44:13.395Z,994.11
2018-12-02T03:45:13.358Z,994.12
2018-12-02T03:47:06.478Z,994.04
2018-12-02T03:48:06.450Z,994.03
2018-12-02T03:49:59.773Z,993.96
2018-12-02T03:50:59.749Z,993.91
2018-12-02T03:53:03.929Z,993.94
2018-12-02T03:54:03.900Z,993.92
2018-12-02T03:56:08.110Z,993.88
2018-12-02T03:57:08.075Z,993.91
2018-12-02T03:59:12.269Z,993.88
2018-12-02T04:00:12.249Z,993.86
2018-12-02T04:02:16.452Z,993.83
2018-12-02T04:03:16.415Z,993.79
2018-12-02T04:05:20.594Z,993.78
2018-12-02T04:06:20.569Z,993.80
2018-12-02T04:08:24.766Z,993.73
2018-12-02T04:09:24.731Z,993.67
2018-12-02T04:11:28.930Z,993.68
2018-12-02T04:12:28.895Z,993.69
2018-12-02T04:14:33.091Z,993.68
2018-12-02T04:15:33.056Z,993.71
2018-12-02T04:17:26.170Z,993.68
2018-12-02T04:18:26.150Z,993.75
2018-12-02T04:20:30.393Z,993.67
2018-12-02T04:21:30.361Z,993.75
2018-12-02T04:23:34.543Z,993.72
2018-12-02T04:24:34.519Z,993.78
2018-12-02T04:26:38.707Z,993.80
2018-12-02T04:27:38.672Z,993.84
2018-12-02T04:29:42.859Z,993.84
2018-12-02T04:30:42.829Z,993.84
2018-12-02T04:32:47.035Z,993.86
2018-12-02T04:33:47.001Z,993.87
2018-12-02T04:35:51.184Z,993.82
2018-12-02T04:36:51.159Z,993.82
2018-12-02T04:38:55.350Z,993.84
2018-12-02T04:39:55.318Z,993.84
2018-12-02T04:41:59.514Z,993.84
2018-12-02T04:42:59.470Z,993.79
2018-12-02T04:45:03.670Z,993.83
2018-12-02T04:46:03.627Z,993.81
2018-12-02T04:48:07.809Z,993.81
2018-12-02T04:49:07.781Z,993.76
2018-12-02T04:51:11.977Z,993.79
2018-12-02T04:52:11.939Z,993.75
2018-12-02T04:54:16.121Z,993.70
2018-12-02T04:55:16.103Z,993.68
2018-12-02T04:57:09.216Z,993.63
2018-12-02T04:58:09.177Z,993.64
2018-12-02T05:00:13.357Z,993.68
2018-12-02T05:01:13.331Z,993.54
2018-12-02T05:03:17.523Z,993.55
2018-12-02T05:04:17.489Z,993.48
2018-12-02T05:06:21.688Z,993.47
2018-12-02T05:07:21.664Z,993.48
2018-12-02T05:09:25.847Z,993.40
2018-12-02T05:10:25.811Z,993.43
2018-12-02T05:12:29.987Z,993.33
2018-12-02T05:13:29.962Z,993.38
2018-12-02T05:15:34.158Z,993.39
2018-12-02T05:16:34.112Z,993.43
2018-12-02T05:18:38.318Z,993.36
2018-12-02T05:19:38.274Z,993.29
2018-12-02T05:21:42.462Z,993.27
2018-12-02T05:22:42.489Z,993.25
2018-12-02T05:24:46.611Z,993.22
2018-12-02T05:25:46.586Z,993.14
2018-12-02T05:27:39.716Z,993.12
2018-12-02T05:28:39.677Z,993.30
2018-12-02T05:30:43.846Z,993.14
2018-12-02T05:31:43.818Z,993.08
2018-12-02T05:33:48.011Z,993.09
2018-12-02T05:34:47.972Z,993.06
2018-12-02T05:36:52.157Z,993.00
2018-12-02T05:37:52.136Z,993.05
2018-12-02T05:39:56.316Z,993.09
2018-12-02T05:40:56.281Z,993.07
2018-12-02T05:43:00.474Z,992.98
2018-12-02T05:44:00.453Z,992.99
2018-12-02T05:46:04.641Z,993.02
2018-12-02T05:47:04.602Z,993.03
2018-12-02T05:49:08.780Z,992.93
2018-12-02T05:50:08.758Z,992.92
2018-12-02T05:52:12.957Z,993.03
2018-12-02T05:53:12.912Z,993.03
2018-12-02T05:55:17.107Z,992.92
2018-12-02T05:56:17.065Z,992.95
2018-12-02T05:58:21.250Z,992.91
2018-12-02T05:59:21.213Z,992.89
2018-12-02T06:01:25.389Z,992.83
2018-12-02T06:02:25.364Z,992.85
2018-12-02T06:04:29.560Z,992.82
2018-12-02T06:05:29.515Z,992.73
2018-12-02T06:07:22.618Z,992.73
2018-12-02T06:08:22.592Z,992.69
2018-12-02T06:10:26.783Z,992.67
2018-12-02T06:11:26.748Z,992.70
2018-12-02T06:13:30.926Z,992.58
2018-12-02T06:14:30.907Z,992.59
2018-12-02T06:16:24.225Z,992.49
2018-12-02T06:17:24.187Z,992.44
2018-12-02T06:19:28.372Z,992.42
2018-12-02T06:20:28.343Z,992.35
2018-12-02T06:22:32.535Z,992.40
2018-12-02T06:23:32.498Z,992.35
2018-12-02T06:25:36.670Z,992.38
2018-12-02T06:26:36.647Z,992.38
2018-12-02T06:28:40.834Z,992.31
2018-12-02T06:29:40.807Z,992.33
2018-12-02T06:31:44.977Z,992.34
2018-12-02T06:32:45.007Z,992.35
2018-12-02T06:34:49.138Z,992.28
2018-12-02T06:35:49.101Z,992.23
2018-12-02T06:37:42.216Z,992.29
2018-12-02T06:38:42.196Z,992.25
2018-12-02T06:40:46.382Z,992.26
2018-12-02T06:41:46.347Z,992.35
2018-12-02T06:43:50.532Z,992.38
2018-12-02T06:44:50.500Z,992.36
2018-12-02T06:46:54.698Z,992.34
2018-12-02T06:47:54.650Z,992.31
2018-12-02T06:49:58.843Z,992.32
2018-12-02T06:50:58.804Z,992.32
2018-12-02T06:53:02.992Z,992.30
2018-12-02T06:54:02.957Z,992.34
2018-12-02T06:56:07.131Z,992.34
2018-12-02T06:57:07.103Z,992.31
2018-12-02T06:59:11.293Z,992.27
2018-12-02T07:00:11.255Z,992.36
2018-12-02T07:02:16.447Z,992.35
2018-12-02T07:03:16.417Z,992.41
2018-12-02T07:05:20.628Z,992.38
2018-12-02T07:06:20.590Z,992.38
2018-12-02T07:08:24.765Z,992.38
2018-12-02T07:09:24.740Z,992.48
2018-12-02T07:11:28.926Z,992.43
2018-12-02T07:12:28.891Z,992.43
2018-12-02T07:14:33.063Z,992.29
2018-12-02T07:15:33.060Z,992.34
2018-12-02T07:17:26.167Z,992.19
2018-12-02T07:18:26.131Z,992.30
2018-12-02T07:20:30.307Z,992.14
2018-12-02T07:21:30.275Z,992.14
2018-12-02T07:23:34.470Z,992.20
2018-12-02T07:24:34.435Z,992.23
2018-12-02T07:26:38.619Z,991.99
2018-12-02T07:27:38.592Z,992.18
2018-12-02T07:29:42.796Z,992.12
2018-12-02T07:30:42.753Z,992.03
2018-12-02T07:32:46.930Z,991.99
2018-12-02T07:33:46.905Z,992.10
2018-12-02T07:35:51.089Z,992.07
2018-12-02T07:36:51.054Z,992.12
2018-12-02T07:38:55.254Z,992.14
2018-12-02T07:39:55.230Z,992.05
2018-12-02T07:41:59.430Z,991.96
2018-12-02T07:42:59.397Z,991.95
2018-12-02T07:45:03.575Z,991.91
2018-12-02T07:46:03.550Z,992.04
2018-12-02T07:48:07.738Z,992.10
2018-12-02T07:49:07.706Z,992.06
2018-12-02T07:51:11.906Z,992.12
2018-12-02T07:52:11.858Z,992.03
2018-12-02T07:54:16.629Z,992.12
2018-12-02T07:55:16.396Z,991.94
2018-12-02T07:57:09.325Z,992.05
2018-12-02T07:58:09.303Z,991.91
2018-12-02T08:00:13.497Z,991.98
2018-12-02T08:01:13.458Z,991.74
2018-12-02T08:03:17.660Z,992.02
2018-12-02T08:04:17.639Z,992.02
2018-12-02T08:06:21.832Z,992.03
2018-12-02T08:07:21.795Z,991.99
2018-12-02T08:09:25.968Z,992.05
2018-12-02T08:10:25.946Z,991.97
2018-12-02T08:12:30.159Z,991.93
2018-12-02T08:13:30.112Z,992.00
2018-12-02T08:15:34.298Z,992.02
2018-12-02T08:16:34.273Z,992.06
2018-12-02T08:18:38.463Z,992.05
2018-12-02T08:19:38.428Z,991.89
2018-12-02T08:21:42.606Z,991.94
2018-12-02T08:22:42.587Z,992.05
2018-12-02T08:24:46.786Z,991.97
2018-12-02T08:25:46.740Z,991.94
2018-12-02T08:27:39.859Z,991.87
2018-12-02T08:28:39.835Z,992.07
2018-12-02T08:30:44.033Z,992.04
2018-12-02T08:31:43.996Z,991.76
2018-12-02T08:33:48.175Z,991.72
2018-12-02T08:34:48.155Z,991.96
2018-12-02T08:36:52.374Z,991.97
2018-12-02T08:37:52.339Z,992.03
2018-12-02T08:39:57.527Z,991.97
2018-12-02T08:40:57.499Z,992.04
2018-12-02T08:43:01.705Z,991.67
2018-12-02T08:44:01.671Z,991.99
2018-12-02T08:46:05.847Z,991.52
2018-12-02T08:47:05.825Z,992.09
2018-12-02T08:49:10.018Z,991.43
2018-12-02T08:50:09.980Z,991.90
2018-12-02T08:52:14.170Z,991.93
2018-12-02T08:53:14.145Z,991.81
2018-12-02T08:55:18.339Z,991.90
2018-12-02T08:56:18.307Z,991.99
2018-12-02T08:58:22.502Z,991.24
2018-12-02T08:59:22.476Z,991.58
2018-12-02T09:01:27.251Z,991.52
2018-12-02T09:02:26.824Z,991.61
2018-12-02T09:04:30.998Z,991.77
2018-12-02T09:05:31.032Z,991.72
2018-12-02T09:07:24.094Z,991.76
2018-12-02T09:08:24.060Z,991.80
2018-12-02T09:10:28.251Z,991.71
2018-12-02T09:11:28.220Z,991.56
2018-12-02T09:13:32.410Z,991.57
2018-12-02T09:14:32.376Z,991.59
2018-12-02T09:16:36.563Z,991.65
2018-12-02T09:17:36.581Z,991.59
2018-12-02T09:19:40.735Z,991.63
2018-12-02T09:20:40.699Z,991.41
2018-12-02T09:22:44.878Z,991.77
2018-12-02T09:23:47.398Z,991.59
2018-12-02T09:25:49.043Z,991.66
2018-12-02T09:26:49.008Z,991.64
2018-12-02T09:28:53.187Z,991.65
2018-12-02T09:29:53.166Z,991.61
2018-12-02T09:31:57.368Z,991.58
2018-12-02T09:32:57.322Z,991.64
2018-12-02T09:35:01.508Z,991.55
2018-12-02T09:36:01.483Z,991.55
2018-12-02T09:38:05.675Z,991.72
2018-12-02T09:39:05.639Z,991.51
2018-12-02T09:41:09.814Z,991.79
2018-12-02T09:42:09.794Z,991.66
2018-12-02T09:44:13.984Z,991.88
2018-12-02T09:45:13.962Z,991.87
2018-12-02T09:47:07.067Z,991.94
2018-12-02T09:48:07.037Z,991.92
2018-12-02T09:50:11.229Z,991.92
2018-12-02T09:51:11.194Z,991.87
2018-12-02T09:53:15.391Z,991.79
2018-12-02T09:54:15.366Z,991.64
2018-12-02T09:56:19.573Z,992.00
2018-12-02T09:57:19.537Z,991.83
2018-12-02T09:59:23.714Z,991.89
2018-12-02T10:00:23.689Z,991.96
2018-12-02T10:02:27.898Z,991.74
2018-12-02T10:03:27.846Z,991.82
2018-12-02T10:05:32.068Z,991.78
2018-12-02T10:06:32.047Z,991.87
2018-12-02T10:08:36.227Z,992.03
2018-12-02T10:09:36.202Z,991.87
2018-12-02T10:11:40.400Z,991.98
2018-12-02T10:12:40.359Z,992.04
2018-12-02T10:14:44.540Z,991.87
2018-12-02T10:15:44.527Z,991.92
2018-12-02T10:17:37.634Z,991.84
2018-12-02T10:18:37.604Z,991.88
2018-12-02T10:20:41.787Z,992.02
2018-12-02T10:21:41.765Z,991.95
2018-12-02T10:23:45.970Z,992.01
2018-12-02T10:24:45.941Z,991.91
2018-12-02T10:26:50.136Z,991.88
2018-12-02T10:27:50.114Z,991.87
2018-12-02T10:29:54.306Z,991.92
2018-12-02T10:30:54.275Z,991.98
2018-12-02T10:32:58.462Z,991.85
2018-12-02T10:33:58.438Z,991.84
2018-12-02T10:36:02.649Z,991.93
2018-12-02T10:37:02.596Z,991.94
2018-12-02T10:38:55.909Z,991.78
2018-12-02T10:39:55.886Z,991.89
2018-12-02T10:42:00.092Z,991.97
2018-12-02T10:43:00.060Z,991.96
2018-12-02T10:45:04.877Z,991.92
2018-12-02T10:46:04.435Z,991.93
2018-12-02T10:48:08.635Z,991.74
2018-12-02T10:49:08.607Z,991.78
2018-12-02T10:51:12.803Z,991.71
2018-12-02T10:52:12.767Z,991.84
2018-12-02T10:54:16.966Z,991.92
2018-12-02T10:55:16.941Z,991.73
2018-12-02T10:57:10.067Z,991.95
2018-12-02T10:58:10.038Z,991.86
2018-12-02T11:00:14.222Z,991.74
2018-12-02T11:01:14.202Z,991.87
2018-12-02T11:03:18.405Z,991.80
2018-12-02T11:04:18.377Z,991.66
2018-12-02T11:06:22.568Z,991.92
2018-12-02T11:07:22.539Z,991.76
2018-12-02T11:09:26.728Z,991.71
2018-12-02T11:10:26.707Z,991.59
2018-12-02T11:12:30.921Z,991.79
2018-12-02T11:13:30.865Z,991.81
2018-12-02T11:15:35.062Z,991.82
2018-12-02T11:16:35.041Z,991.59
2018-12-02T11:18:39.233Z,991.91
2018-12-02T11:19:39.206Z,991.76
2018-12-02T11:21:43.386Z,991.77
2018-12-02T11:22:43.359Z,991.80
2018-12-02T11:24:47.570Z,991.49
2018-12-02T11:25:47.572Z,991.95
2018-12-02T11:27:40.650Z,991.69
2018-12-02T11:28:40.631Z,991.63
2018-12-02T11:30:33.959Z,991.65
2018-12-02T11:31:33.929Z,991.77
2018-12-02T11:33:38.112Z,991.87
2018-12-02T11:34:38.087Z,991.65
2018-12-02T11:36:42.284Z,991.82
2018-12-02T11:37:42.244Z,991.83
2018-12-02T11:39:46.433Z,991.68
2018-12-02T11:40:46.433Z,991.56
2018-12-02T11:42:50.601Z,991.73
2018-12-02T11:43:50.573Z,991.81
2018-12-02T11:45:54.763Z,991.60
2018-12-02T11:46:54.730Z,991.79
2018-12-02T11:48:58.916Z,991.78
2018-12-02T11:49:58.894Z,991.50
2018-12-02T11:52:03.089Z,991.64
2018-12-02T11:53:03.057Z,991.59
2018-12-02T11:55:07.265Z,991.81
2018-12-02T11:56:07.241Z,991.60
2018-12-02T11:58:11.436Z,991.19
2018-12-02T11:59:11.402Z,991.75
2018-12-02T12:01:15.593Z,991.75
2018-12-02T12:02:15.569Z,991.64
2018-12-02T12:04:19.777Z,991.64
2018-12-02T12:05:19.734Z,991.14
2018-12-02T12:07:12.857Z,991.79
2018-12-02T12:08:12.825Z,991.68
2018-12-02T12:10:17.033Z,991.43
2018-12-02T12:11:17.001Z,991.69
2018-12-02T12:13:21.198Z,991.72
2018-12-02T12:14:21.179Z,991.72
2018-12-02T12:16:25.374Z,991.71
2018-12-02T12:17:25.343Z,991.71
2018-12-02T12:19:29.535Z,991.57
2018-12-02T12:20:29.516Z,991.44
2018-12-02T12:22:33.724Z,991.55
2018-12-02T12:23:33.697Z,991.57
2018-12-02T12:25:37.894Z,991.11
2018-12-02T12:26:37.861Z,991.51
2018-12-02T12:28:42.060Z,991.58
2018-12-02T12:29:42.034Z,991.52
2018-12-02T12:31:46.247Z,991.60
2018-12-02T12:32:46.200Z,990.85
2018-12-02T12:34:50.379Z,991.48
2018-12-02T12:35:50.357Z,991.54
2018-12-02T12:37:43.493Z,991.59
2018-12-02T12:38:43.458Z,991.65
2018-12-02T12:40:47.650Z,991.65
2018-12-02T12:41:47.629Z,991.47
2018-12-02T12:43:51.825Z,991.71
2018-12-02T12:44:51.797Z,991.56
2018-12-02T12:46:56.000Z,991.23
2018-12-02T12:47:55.958Z,991.52
2018-12-02T12:50:00.170Z,991.57
2018-12-02T12:51:00.147Z,991.65
2018-12-02T12:53:04.349Z,991.13
2018-12-02T12:54:04.315Z,991.53
2018-12-02T12:56:08.500Z,991.75
2018-12-02T12:57:08.479Z,991.74
2018-12-02T12:59:12.671Z,991.69
2018-12-02T13:00:12.639Z,991.25
2018-12-02T13:02:16.830Z,991.82
2018-12-02T13:03:16.806Z,991.76
2018-12-02T13:05:21.003Z,991.68
2018-12-02T13:06:20.974Z,991.68
2018-12-02T13:08:25.161Z,991.73
2018-12-02T13:09:25.168Z,991.57
2018-12-02T13:11:29.329Z,991.74
2018-12-02T13:12:29.299Z,991.73
2018-12-02T13:14:33.486Z,991.77
2018-12-02T13:15:33.465Z,991.84
2018-12-02T13:17:26.595Z,991.66
2018-12-02T13:18:26.565Z,991.77
2018-12-02T13:20:30.752Z,991.82
2018-12-02T13:21:30.734Z,991.77
2018-12-02T13:23:34.931Z,991.67
2018-12-02T13:24:34.899Z,991.86
2018-12-02T13:26:39.084Z,991.79
2018-12-02T13:27:39.062Z,991.60
2018-12-02T13:29:43.296Z,991.65
2018-12-02T13:30:44.096Z,991.67
2018-12-02T13:32:47.415Z,991.70
2018-12-02T13:33:47.394Z,991.59
2018-12-02T13:35:51.598Z,991.79
2018-12-02T13:36:51.561Z,991.87
2018-12-02T13:38:55.747Z,991.75
2018-12-02T13:39:55.727Z,991.78
2018-12-02T13:41:59.920Z,991.88
2018-12-02T13:42:59.910Z,991.86
2018-12-02T13:45:04.075Z,991.95
2018-12-02T13:46:04.056Z,992.00
2018-12-02T13:48:08.256Z,992.15
2018-12-02T13:49:08.218Z,992.07
2018-12-02T13:51:12.418Z,992.03
2018-12-02T13:52:12.382Z,992.03
2018-12-02T13:54:16.566Z,991.98
2018-12-02T13:55:16.545Z,991.77
2018-12-02T13:57:09.676Z,992.00
2018-12-02T13:58:09.641Z,992.01
2018-12-02T14:00:13.822Z,992.06
2018-12-02T14:01:13.805Z,991.95
2018-12-02T14:03:18.016Z,992.09
2018-12-02T14:04:17.983Z,992.17
2018-12-02T14:06:22.172Z,992.23
2018-12-02T14:07:22.154Z,992.13
2018-12-02T14:09:26.375Z,992.06
2018-12-02T14:10:26.314Z,992.19
2018-12-02T14:12:30.505Z,991.84
2018-12-02T14:13:30.488Z,991.99
2018-12-02T14:15:34.680Z,992.11
2018-12-02T14:16:34.644Z,992.13
2018-12-02T14:18:38.830Z,992.14
2018-12-02T14:19:38.806Z,992.25
2018-12-02T14:21:43.000Z,992.31
2018-12-02T14:22:42.971Z,992.14
2018-12-02T14:24:47.154Z,992.32
2018-12-02T14:25:47.133Z,992.39
2018-12-02T14:27:40.262Z,992.50
2018-12-02T14:28:40.226Z,992.41
2018-12-02T14:30:44.434Z,992.39
2018-12-02T14:31:44.388Z,992.34
2018-12-02T14:33:48.584Z,992.20
2018-12-02T14:34:48.556Z,992.23
2018-12-02T14:36:52.739Z,992.44
2018-12-02T14:37:52.721Z,992.53
2018-12-02T14:39:56.907Z,992.53
2018-12-02T14:40:56.879Z,992.39
2018-12-02T14:43:01.066Z,992.39
2018-12-02T14:44:01.068Z,992.48
2018-12-02T14:46:05.239Z,992.51
2018-12-02T14:47:05.207Z,992.45
2018-12-02T14:49:09.408Z,992.48
2018-12-02T14:50:09.379Z,992.45
2018-12-02T14:52:13.574Z,992.54
2018-12-02T14:53:13.544Z,992.50
2018-12-02T14:55:17.743Z,992.58
2018-12-02T14:56:17.705Z,992.61
2018-12-02T14:58:21.899Z,992.63
2018-12-02T14:59:21.872Z,992.51
2018-12-02T15:01:26.053Z,992.71
2018-12-02T15:02:26.031Z,992.68
2018-12-02T15:04:30.236Z,992.56
2018-12-02T15:05:30.211Z,992.61
2018-12-02T15:07:23.324Z,992.58
2018-12-02T15:08:23.309Z,992.58
2018-12-02T15:10:27.493Z,992.58
2018-12-02T15:11:27.466Z,992.58
2018-12-02T15:13:31.660Z,992.53
2018-12-02T15:14:31.647Z,992.27
2018-12-02T15:16:35.829Z,992.48
2018-12-02T15:17:35.799Z,992.53
2018-12-02T15:19:39.985Z,992.46
2018-12-02T15:20:39.966Z,992.53
2018-12-02T15:22:44.162Z,992.58
2018-12-02T15:23:44.126Z,992.54
2018-12-02T15:25:48.311Z,992.52
2018-12-02T15:26:48.291Z,992.55
2018-12-02T15:28:52.492Z,992.70
2018-12-02T15:29:52.462Z,992.58
2018-12-02T15:31:56.650Z,992.67
2018-12-02T15:32:56.626Z,992.73
2018-12-02T15:35:00.828Z,992.67
2018-12-02T15:36:00.791Z,992.66
2018-12-02T15:37:53.912Z,992.67
2018-12-02T15:38:53.888Z,992.41
2018-12-02T15:40:58.085Z,992.64
2018-12-02T15:41:58.058Z,992.57
2018-12-02T15:44:02.255Z,992.61
2018-12-02T15:45:02.233Z,992.76
2018-12-02T15:47:06.417Z,992.60
2018-12-02T15:48:06.389Z,992.72
2018-12-02T15:50:10.590Z,992.54
2018-12-02T15:51:10.551Z,992.61
2018-12-02T15:53:14.732Z,992.74
2018-12-02T15:54:14.713Z,992.68
2018-12-02T15:56:18.906Z,992.71
2018-12-02T15:57:18.877Z,992.74
2018-12-02T15:59:23.065Z,992.67
2018-12-02T16:00:23.044Z,992.73
2018-12-02T16:02:27.245Z,992.69
2018-12-02T16:03:27.207Z,992.75
2018-12-02T16:05:31.397Z,992.75
2018-12-02T16:06:31.382Z,992.81
2018-12-02T16:08:35.594Z,992.72
2018-12-02T16:09:35.546Z,992.67
2018-12-02T16:11:39.727Z,992.81
2018-12-02T16:12:39.705Z,992.70
2018-12-02T16:14:43.904Z,992.63
2018-12-02T16:15:43.870Z,992.83
2018-12-02T16:17:36.994Z,992.72
2018-12-02T16:18:36.971Z,992.74
2018-12-02T16:20:41.167Z,992.77
2018-12-02T16:21:41.139Z,992.82
2018-12-02T16:23:45.350Z,992.81
2018-12-02T16:24:45.318Z,992.81
2018-12-02T16:26:49.511Z,992.79
2018-12-02T16:27:49.491Z,992.73
2018-12-02T16:29:53.688Z,992.73
2018-12-02T16:30:53.657Z,992.87
2018-12-02T16:32:57.842Z,992.66
2018-12-02T16:33:57.824Z,992.68
2018-12-02T16:36:02.007Z,993.02
2018-12-02T16:37:01.987Z,992.92
2018-12-02T16:39:06.185Z,992.80
2018-12-02T16:40:06.143Z,992.72
2018-12-02T16:42:10.328Z,992.81
2018-12-02T16:43:10.305Z,992.91
2018-12-02T16:45:14.518Z,992.83
2018-12-02T16:46:14.472Z,992.82
2018-12-02T16:48:18.666Z,992.84
2018-12-02T16:49:18.634Z,992.85
2018-12-02T16:51:22.825Z,992.92
2018-12-02T16:52:22.792Z,992.81
2018-12-02T16:54:26.983Z,992.92
2018-12-02T16:55:26.947Z,992.82
2018-12-02T16:57:20.065Z,992.93
2018-12-02T16:58:20.040Z,992.84
2018-12-02T17:00:24.235Z,992.92
2018-12-02T17:01:24.202Z,992.89
2018-12-02T17:03:28.385Z,992.86
2018-12-02T17:04:28.359Z,992.88
2018-12-02T17:06:32.552Z,992.72
2018-12-02T17:07:32.522Z,992.83
2018-12-02T17:09:36.724Z,992.70
2018-12-02T17:10:36.695Z,992.79
2018-12-02T17:12:40.886Z,992.86
2018-12-02T17:13:40.858Z,992.82
2018-12-02T17:15:45.033Z,992.72
2018-12-02T17:16:45.017Z,992.70
2018-12-02T17:18:49.201Z,992.73
2018-12-02T17:19:49.178Z,992.68
2018-12-02T17:21:53.376Z,992.78
2018-12-02T17:22:53.339Z,992.62
2018-12-02T17:24:57.533Z,992.83
2018-12-02T17:25:57.502Z,992.73
2018-12-02T17:27:50.644Z,992.72
2018-12-02T17:28:50.596Z,992.61
2018-12-02T17:30:54.838Z,992.77
2018-12-02T17:31:54.807Z,992.73
2018-12-02T17:33:58.995Z,992.84
2018-12-02T17:34:58.972Z,992.69
2018-12-02T17:37:03.170Z,992.82
2018-12-02T17:38:03.133Z,992.85
2018-12-02T17:40:07.335Z,992.80
2018-12-02T17:41:07.314Z,992.84
2018-12-02T17:43:11.515Z,992.75
2018-12-02T17:44:11.479Z,992.74
2018-12-02T17:46:15.663Z,992.83
2018-12-02T17:47:15.642Z,992.66
2018-12-02T17:49:19.847Z,992.85
2018-12-02T17:50:19.801Z,992.88
2018-12-02T17:52:23.994Z,992.91
2018-12-02T17:53:23.970Z,992.87
2018-12-02T17:55:28.173Z,993.06
2018-12-02T17:56:28.134Z,992.88
2018-12-02T17:58:32.321Z,992.95
2018-12-02T17:59:32.290Z,993.05
2018-12-02T18:01:36.506Z,993.00
2018-12-02T18:02:36.471Z,992.93
2018-12-02T18:04:40.653Z,992.88
2018-12-02T18:05:40.631Z,993.09
2018-12-02T18:07:33.781Z,993.05
2018-12-02T18:08:33.767Z,993.04
2018-12-02T18:10:37.940Z,993.08
2018-12-02T18:11:37.926Z,993.09
2018-12-02T18:13:42.109Z,993.06
2018-12-02T18:14:42.071Z,993.02
2018-12-02T18:16:50.097Z,992.99
2018-12-02T18:17:46.229Z,992.89
2018-12-02T18:19:50.443Z,992.63
2018-12-02T18:20:50.396Z,992.83
2018-12-02T18:22:54.579Z,992.91
2018-12-02T18:23:54.555Z,992.84
2018-12-02T18:25:58.747Z,992.95
2018-12-02T18:26:58.713Z,992.97
2018-12-02T18:29:02.897Z,992.99
2018-12-02T18:30:02.870Z,992.88
2018-12-02T18:32:07.093Z,993.00
2018-12-02T18:33:07.050Z,992.91
2018-12-02T18:35:11.227Z,992.96
2018-12-02T18:36:11.199Z,992.94
2018-12-02T18:38:15.393Z,993.00
2018-12-02T18:39:15.358Z,993.06
2018-12-02T18:41:19.563Z,993.07
2018-12-02T18:42:19.539Z,992.97
2018-12-02T18:44:23.789Z,992.96
2018-12-02T18:45:23.724Z,992.95
2018-12-02T18:47:16.832Z,992.91
2018-12-02T18:48:16.815Z,992.88
2018-12-02T18:50:21.043Z,992.85
2018-12-02T18:51:20.972Z,992.92
2018-12-02T18:53:25.160Z,992.84
2018-12-02T18:54:25.137Z,992.93
2018-12-02T18:56:29.324Z,992.87
2018-12-02T18:57:29.294Z,992.99
2018-12-02T18:59:33.480Z,992.99
2018-12-02T19:00:33.504Z,993.01
2018-12-02T19:02:37.647Z,993.05